Time;durP1;ratioP1;P1;durP2;ratioP2;P2;SDS_P1;SDS_P2;PMS_P1;PMS_P2;Temp;Humidity;BMP_temperature;BMP_pressure;BME280_temperature;BME280_humidity;BME280_pressure;Samples;Min_cycle;Max_cycle;Signal;HPM_P1;HPM_P2
2023/04/26 00:01:05;;;;;;;0.47;0.47;;;;;;;10.79;83.88;97945.06;6185300;23;20027;-90
2023/04/26 00:03:32;;;;;;;0.40;0.40;;;;;;;10.71;84.12;97932.09;6135234;23;20338;-89
2023/04/26 00:06:04;;;;;;;0.40;0.40;;;;;;;10.75;84.19;97943.16;6184576;23;20020;-89
2023/04/26 00:08:31;;;;;;;0.40;0.40;;;;;;;10.78;84.05;97934.50;6160046;23;20105;-90
2023/04/26 00:10:59;;;;;;;0.40;0.40;;;;;;;10.72;84.28;97920.22;6184916;23;20025;-91
2023/04/26 00:13:26;;;;;;;0.40;0.40;;;;;;;10.75;84.30;97921.56;6185812;23;20441;-90
2023/04/26 00:15:53;;;;;;;0.40;0.40;;;;;;;10.75;84.05;97925.06;6159353;23;20067;-91
2023/04/26 00:18:22;;;;;;;0.40;0.40;;;;;;;10.68;84.04;97924.53;6160045;23;20025;-90
2023/04/26 00:20:49;;;;;;;0.40;0.40;;;;;;;10.69;84.14;97923.47;6160822;23;20044;-90
2023/04/26 00:23:17;;;;;;;0.50;0.50;;;;;;;10.65;84.40;97930.47;6177888;23;20027;-90
2023/04/26 00:25:44;;;;;;;0.40;0.40;;;;;;;10.70;84.77;97919.69;6203074;23;20016;-89
2023/04/26 00:28:11;;;;;;;0.40;0.40;;;;;;;10.67;85.05;97919.44;6178258;23;20029;-89
2023/04/26 00:30:46;;;;;;;0.50;0.50;;;;;;;10.62;85.62;97915.63;6217746;23;20032;-88
2023/04/26 00:33:44;;;;;;;0.45;0.45;;;;;;;10.66;85.97;97923.19;6098394;23;20022;-88
2023/04/26 00:36:13;;;;;;;0.40;0.40;;;;;;;10.58;85.92;97911.06;6123504;23;20509;-88
2023/04/26 00:38:42;;;;;;;0.50;0.50;;;;;;;10.50;86.17;97908.91;6121545;23;20060;-88
2023/04/26 00:41:10;;;;;;;0.50;0.50;;;;;;;10.47;86.75;97904.06;6097382;23;20025;-87
2023/04/26 00:43:39;;;;;;;0.40;0.40;;;;;;;10.56;86.93;97902.44;6121077;23;20021;-87
2023/04/26 00:46:08;;;;;;;0.47;0.47;;;;;;;10.57;86.99;97906.75;6121398;23;20029;-87
2023/04/26 00:52:04;;;;;;;0.40;0.40;;;;;;;10.44;86.75;97896.50;6104546;23;20101;-88
2023/04/26 00:54:31;;;;;;;0.50;0.50;;;;;;;10.38;87.01;97893.81;6121259;23;20033;-88
2023/04/26 00:59:44;;;;;;;0.40;0.40;;;;;;;10.40;87.39;97888.94;6120908;23;20050;-89
2023/04/26 01:02:12;;;;;;;0.40;0.40;;;;;;;10.31;87.66;97870.91;6120797;23;20113;-89
2023/04/26 01:04:40;;;;;;;0.40;0.40;;;;;;;10.38;87.56;97888.44;6121370;23;20080;-88
2023/04/26 01:07:07;;;;;;;0.40;0.40;;;;;;;10.41;87.70;97884.38;6096501;23;20022;-87
2023/04/26 01:09:53;;;;;;;0.40;0.40;;;;;;;10.41;87.75;97878.97;6163103;23;20020;-89
2023/04/26 01:12:25;;;;;;;0.50;0.50;;;;;;;10.30;87.77;97878.16;6213672;23;20505;-89
2023/04/26 01:14:56;;;;;;;0.50;0.50;;;;;;;10.24;88.08;97865.75;6186675;23;20059;-89
2023/04/26 01:17:45;;;;;;;0.50;0.50;;;;;;;10.30;88.24;97878.16;6211960;23;20525;-88
2023/04/26 01:20:13;;;;;;;0.50;0.50;;;;;;;10.15;88.08;97862.78;6213712;23;20092;-89
2023/04/26 01:22:42;;;;;;;0.50;0.50;;;;;;;10.11;88.46;97866.28;6213601;23;20062;-89
2023/04/26 01:25:11;;;;;;;0.50;0.50;;;;;;;10.09;88.67;97858.44;6212784;23;20456;-89
2023/04/26 01:27:38;;;;;;;0.50;0.50;;;;;;;10.10;88.56;97857.38;6212496;23;20485;-87
2023/04/26 01:30:07;;;;;;;0.40;0.40;;;;;;;10.09;88.95;97853.06;6212508;23;20021;-87
2023/04/26 01:32:35;;;;;;;0.50;0.50;;;;;;;10.10;89.69;97860.09;6188768;23;20031;-87
2023/04/26 01:35:05;;;;;;;0.40;0.40;;;;;;;10.04;90.16;97857.66;6213758;23;20029;-87
2023/04/26 01:37:51;;;;;;;0.40;0.40;;;;;;;9.94;90.64;97856.56;6218097;23;20023;-87
2023/04/26 01:40:20;;;;;;;0.50;0.50;;;;;;;9.85;90.99;97847.41;6234857;23;20040;-86
2023/04/26 01:42:47;;;;;;;0.50;0.50;;;;;;;9.81;91.42;97856.28;6232052;23;20020;-87
2023/04/26 01:45:16;;;;;;;0.50;0.50;;;;;;;9.77;91.80;97848.75;6213679;23;20020;-86
2023/04/26 01:48:02;;;;;;;0.50;0.50;;;;;;;9.77;91.98;97846.03;6213337;23;20032;-87
2023/04/26 01:50:31;;;;;;;0.50;0.50;;;;;;;9.71;92.30;97835.50;6213702;23;20765;-86
2023/04/26 01:52:58;;;;;;;0.50;0.50;;;;;;;9.66;92.73;97825.53;6163429;23;20025;-86
2023/04/26 01:55:25;;;;;;;0.50;0.50;;;;;;;9.76;92.92;97827.44;6214961;23;20476;-86
2023/04/26 01:57:52;;;;;;;0.50;0.50;;;;;;;9.76;92.95;97830.94;6214733;23;20027;-87
2023/04/26 02:00:20;;;;;;;0.43;0.43;;;;;;;9.81;92.94;97834.72;6213711;23;20075;-87
2023/04/26 02:02:54;;;;;;;0.40;0.40;;;;;;;9.81;93.49;97824.75;6213343;23;20456;-87
2023/04/26 02:05:23;;;;;;;0.50;0.50;;;;;;;9.88;93.36;97828.00;6214973;23;20435;-85
2023/04/26 02:07:50;;;;;;;0.45;0.45;;;;;;;9.84;93.41;97823.41;6213153;23;20027;-86
2023/04/26 02:10:36;;;;;;;0.50;0.50;;;;;;;9.84;93.51;97815.31;6188323;23;20028;-87
2023/04/26 02:13:04;;;;;;;0.50;0.50;;;;;;;9.75;93.53;97815.84;6215402;23;20024;-87
2023/04/26 02:15:31;;;;;;;0.50;0.50;;;;;;;9.77;93.60;97813.72;6191053;23;20047;-86
2023/04/26 02:17:58;;;;;;;0.50;0.50;;;;;;;9.77;93.95;97810.19;6226459;23;20027;-86
2023/04/26 02:20:26;;;;;;;0.50;0.50;;;;;;;9.75;93.82;97801.59;6236165;23;20033;-89
2023/04/26 02:22:56;;;;;;;0.50;0.50;;;;;;;9.74;93.63;97805.34;6221933;23;20513;-87
2023/04/26 02:25:23;;;;;;;0.50;0.50;;;;;;;9.70;93.77;97796.19;6215648;23;20020;-86
2023/04/26 02:27:53;;;;;;;0.50;0.50;;;;;;;9.69;93.58;97795.34;6215203;23;20020;-86
2023/04/26 02:30:20;;;;;;;0.50;0.50;;;;;;;9.74;93.73;97794.56;6188636;23;20044;-88
2023/04/26 02:32:53;;;;;;;0.50;0.50;;;;;;;9.67;93.89;97788.63;6212368;23;20059;-86
2023/04/26 02:35:21;;;;;;;0.40;0.40;;;;;;;9.66;93.68;97795.09;6214250;23;20029;-86
2023/04/26 02:37:51;;;;;;;0.40;0.40;;;;;;;9.63;93.89;97790.25;6138711;23;20359;-88
2023/04/26 02:40:19;;;;;;;0.50;0.50;;;;;;;9.56;93.96;97793.19;6213073;23;20021;-88
2023/04/26 02:42:47;;;;;;;0.40;0.40;;;;;;;9.52;94.30;97784.03;6213854;23;20022;-87
2023/04/26 02:45:16;;;;;;;0.50;0.50;;;;;;;9.44;94.10;97777.28;6212350;23;20047;-87
2023/04/26 02:47:43;;;;;;;0.50;0.50;;;;;;;9.49;94.49;97789.94;6212212;23;20075;-88
2023/04/26 02:50:11;;;;;;;0.50;0.50;;;;;;;9.51;94.81;97790.50;6212671;23;20067;-88
2023/04/26 02:52:40;;;;;;;0.50;0.50;;;;;;;9.51;95.10;97785.91;6219057;23;20032;-87
2023/04/26 02:55:07;;;;;;;0.50;0.50;;;;;;;9.55;95.21;97789.69;6215731;23;20021;-86
2023/04/26 02:57:34;;;;;;;0.50;0.50;;;;;;;9.53;95.19;97782.97;6213935;23;20074;-87
2023/04/26 03:00:06;;;;;;;0.50;0.50;;;;;;;9.47;95.38;97784.00;6212996;23;20025;-87
2023/04/26 03:02:35;;;;;;;0.50;0.50;;;;;;;9.42;95.78;97789.38;6163515;23;20103;-86
2023/04/26 03:05:05;;;;;;;0.50;0.50;;;;;;;9.42;96.24;97784.00;6214872;23;20125;-87
2023/04/26 03:07:33;;;;;;;0.50;0.50;;;;;;;9.45;96.92;97778.09;6188918;23;20078;-87
2023/04/26 03:10:00;;;;;;;0.50;0.50;;;;;;;9.44;96.88;97782.66;6214470;23;20049;-86
2023/04/26 03:12:29;;;;;;;0.50;0.50;;;;;;;9.46;96.79;97774.31;6188223;23;20075;-87
2023/04/26 03:14:57;;;;;;;0.50;0.50;;;;;;;9.57;97.05;97770.59;6187748;23;20024;-88
2023/04/26 03:17:51;;;;;;;0.50;0.50;;;;;;;9.63;97.09;97772.19;6188677;23;20081;-88
2023/04/26 03:20:21;;;;;;;0.50;0.50;;;;;;;9.64;96.84;97765.72;6195748;23;20063;-87
2023/04/26 03:22:48;;;;;;;0.50;0.50;;;;;;;9.61;96.70;97760.06;6202711;23;20025;-86
2023/04/26 03:25:16;;;;;;;0.50;0.50;;;;;;;9.60;96.49;97761.97;6202947;23;20020;-85
2023/04/26 03:27:43;;;;;;;0.50;0.50;;;;;;;9.62;96.51;97765.22;6152193;23;20025;-86
2023/04/26 03:30:12;;;;;;;0.50;0.50;;;;;;;9.66;96.58;97760.06;6166403;23;20356;-87
2023/04/26 03:32:41;;;;;;;0.50;0.50;;;;;;;9.66;96.33;97758.19;6165178;23;20025;-88
2023/04/26 03:35:09;;;;;;;0.50;0.50;;;;;;;9.64;96.70;97762.22;6217124;23;20399;-85
2023/04/26 03:37:38;;;;;;;0.50;0.50;;;;;;;9.64;97.05;97751.44;6187634;23;20348;-86
2023/04/26 03:40:13;;;;;;;0.40;0.40;;;;;;;9.62;96.99;97740.13;6187725;23;20028;-85
2023/04/26 03:42:42;;;;;;;0.50;0.50;;;;;;;9.54;96.70;97750.38;6187443;23;20029;-85
2023/04/26 03:45:17;;;;;;;0.50;0.50;;;;;;;9.49;97.08;97741.47;6190231;23;20333;-92
2023/04/26 03:47:45;;;;;;;0.50;0.50;;;;;;;9.52;97.67;97746.31;6187409;23;20020;-83
2023/04/26 03:50:12;;;;;;;0.50;0.50;;;;;;;9.51;97.95;97740.13;6186538;23;20024;-83
2023/04/26 03:52:39;;;;;;;0.47;0.47;;;;;;;9.49;98.19;97744.97;6212427;23;20024;-86
2023/04/26 03:55:08;;;;;;;0.50;0.50;;;;;;;9.49;98.34;97731.50;6184727;23;20021;-88
2023/04/26 03:57:36;;;;;;;0.50;0.50;;;;;;;9.59;98.91;97735.28;6158229;23;20641;-85
2023/04/26 04:00:12;;;;;;;0.50;0.50;;;;;;;9.62;98.80;97746.34;6182633;23;20032;-84
2023/04/26 04:02:43;;;;;;;0.50;0.50;;;;;;;9.67;98.81;97740.97;6210352;23;20020;-85
2023/04/26 04:05:20;;;;;;;0.50;0.50;;;;;;;9.71;98.46;97733.94;6161152;23;20024;-91
2023/04/26 04:07:49;;;;;;;0.50;0.50;;;;;;;9.67;98.48;97738.28;6157721;23;20072;-85
2023/04/26 04:10:19;;;;;;;0.50;0.50;;;;;;;9.68;98.62;97745.25;6183936;23;20406;-91
2023/04/26 04:12:46;;;;;;;0.50;0.50;;;;;;;9.66;98.26;97730.44;6157637;23;20020;-88
2023/04/26 04:15:17;;;;;;;0.50;0.50;;;;;;;9.72;98.39;97729.34;6211848;23;20172;-87
2023/04/26 04:17:46;;;;;;;0.50;0.50;;;;;;;9.74;98.08;97732.59;6208378;23;20023;-86
2023/04/26 04:20:14;;;;;;;0.50;0.50;;;;;;;9.71;97.67;97733.13;6156586;23;20024;-85
2023/04/26 04:22:44;;;;;;;0.50;0.50;;;;;;;9.67;97.57;97737.44;6181978;23;20029;-86
2023/04/26 04:25:12;;;;;;;0.40;0.40;;;;;;;9.77;97.85;97732.03;6186343;23;20576;-85
2023/04/26 04:27:41;;;;;;;0.50;0.50;;;;;;;9.77;97.47;97719.41;6186128;23;20039;-87
2023/04/26 04:30:10;;;;;;;0.50;0.50;;;;;;;9.78;97.38;97733.69;6185517;23;20048;-87
2023/04/26 04:32:39;;;;;;;0.50;0.50;;;;;;;9.75;97.41;97724.25;6161910;23;20035;-86
2023/04/26 04:35:06;;;;;;;0.50;0.50;;;;;;;9.84;97.53;97737.16;6160819;23;20044;-87
2023/04/26 04:37:34;;;;;;;0.50;0.50;;;;;;;9.90;97.64;97728.81;6186686;23;20456;-86
2023/04/26 04:40:02;;;;;;;0.50;0.50;;;;;;;9.94;97.42;97721.78;6161361;23;20039;-87
2023/04/26 04:42:32;;;;;;;0.50;0.50;;;;;;;10.04;97.16;97729.06;6186380;23;20070;-87
2023/04/26 04:45:04;;;;;;;0.50;0.50;;;;;;;10.02;96.77;97716.94;6161279;23;20029;-86
2023/04/26 04:47:36;;;;;;;0.50;0.50;;;;;;;10.13;96.59;97732.03;6186492;23;20095;-87
2023/04/26 04:50:05;;;;;;;0.50;0.50;;;;;;;10.20;96.44;97732.53;6187269;23;20047;-87
2023/04/26 04:52:38;;;;;;;;;;;;;;;10.16;95.90;97726.09;6162102;23;20035;-87
2023/04/26 04:55:08;;;;;;;0.50;0.50;;;;;;;10.08;95.79;97734.75;6137185;23;20232;-86
2023/04/26 04:57:37;;;;;;;0.50;0.50;;;;;;;9.94;95.65;97721.00;6186904;23;20021;-87
2023/04/26 05:00:09;;;;;;;0.50;0.50;;;;;;;9.99;95.74;97729.88;6163055;23;20059;-87
2023/04/26 05:02:42;;;;;;;;;;;;;;;9.96;95.73;97730.44;6187266;23;20021;-87
2023/04/26 05:05:10;;;;;;;0.50;0.50;;;;;;;9.92;96.10;97725.84;6162782;23;19931;-87
2023/04/26 05:07:40;;;;;;;0.50;0.50;;;;;;;10.04;96.33;97720.19;6186437;23;20079;-87
2023/04/26 05:10:07;;;;;;;0.60;0.60;;;;;;;10.12;96.34;97723.13;6186715;23;20122;-87
2023/04/26 05:12:38;;;;;;;0.50;0.50;;;;;;;10.09;96.15;97734.44;6185762;23;20020;-86
2023/04/26 05:17:54;;;;;;;0.50;0.50;;;;;;;10.06;95.88;97723.41;6209915;23;20118;-87
2023/04/26 05:20:23;;;;;;;0.50;0.50;;;;;;;10.08;95.91;97727.44;6183039;23;20376;-86
2023/04/26 05:22:54;;;;;;;0.50;0.50;;;;;;;10.09;95.78;97723.66;6210754;23;20687;-85
2023/04/26 05:25:21;;;;;;;0.50;0.50;;;;;;;10.16;95.87;97726.09;6208792;23;20044;-85
2023/04/26 05:27:55;;;;;;;0.50;0.50;;;;;;;10.10;95.69;97714.50;6209263;23;20024;-89
2023/04/26 05:30:39;;;;;;;0.50;0.50;;;;;;;10.12;95.78;97723.13;6189575;23;20028;-88
2023/04/26 05:33:21;;;;;;;0.50;0.50;;;;;;;10.13;95.69;97718.56;6185096;23;20630;-85
2023/04/26 05:36:08;;;;;;;0.50;0.50;;;;;;;10.12;95.23;97720.41;6178771;23;20021;-90
2023/04/26 05:38:37;;;;;;;0.50;0.50;;;;;;;10.17;95.58;97719.59;6221835;23;20097;-88
2023/04/26 05:41:05;;;;;;;0.50;0.50;;;;;;;10.07;95.26;97716.94;6223523;23;20047;-90
2023/04/26 05:43:32;;;;;;;0.50;0.50;;;;;;;10.07;95.45;97719.63;6226378;23;20075;-87
2023/04/26 05:46:02;;;;;;;0.50;0.50;;;;;;;10.10;95.78;97722.59;6165603;23;20024;-89
2023/04/26 05:48:32;;;;;;;0.50;0.50;;;;;;;10.19;96.38;97729.03;6221524;23;20028;-88
2023/04/26 05:50:59;;;;;;;0.50;0.50;;;;;;;10.26;96.32;97726.06;6212637;23;20024;-89
2023/04/26 05:53:26;;;;;;;0.50;0.50;;;;;;;10.21;96.12;97726.06;6184294;23;20025;-85
2023/04/26 05:55:56;;;;;;;0.50;0.50;;;;;;;10.15;96.19;97721.75;6207600;23;20078;-89
2023/04/26 05:58:23;;;;;;;0.50;0.50;;;;;;;10.10;96.38;97730.69;6211271;23;20021;-88
2023/04/26 06:00:54;;;;;;;0.50;0.50;;;;;;;10.11;96.48;97726.91;6219729;23;20035;-89
2023/04/26 06:03:21;;;;;;;0.50;0.50;;;;;;;10.25;96.61;97729.81;6212473;23;20750;-88
2023/04/26 06:05:50;;;;;;;0.50;0.50;;;;;;;10.34;96.38;97727.44;6189598;23;20020;-88
2023/04/26 06:08:21;;;;;;;0.50;0.50;;;;;;;10.20;95.82;97729.84;6212646;23;20052;-89
2023/04/26 06:10:49;;;;;;;0.50;0.50;;;;;;;10.16;95.84;97736.88;6211454;23;20083;-88
2023/04/26 06:13:16;;;;;;;0.50;0.50;;;;;;;10.18;96.10;97729.31;6214000;23;20055;-87
2023/04/26 06:15:44;;;;;;;0.50;0.50;;;;;;;10.21;96.10;97736.88;6212362;23;20016;-88
2023/04/26 06:18:18;;;;;;;0.50;0.50;;;;;;;10.35;96.08;97746.00;6212646;23;20028;-88
2023/04/26 06:20:50;;;;;;;0.50;0.50;;;;;;;10.32;96.05;97741.16;6211046;23;20024;-89
2023/04/26 06:23:20;;;;;;;0.50;0.50;;;;;;;10.30;95.68;97737.13;6190030;23;20020;-89
2023/04/26 06:25:47;;;;;;;0.47;0.47;;;;;;;10.28;95.90;97728.50;6215900;23;20020;-87
2023/04/26 06:28:14;;;;;;;0.50;0.50;;;;;;;10.45;95.90;97739.78;6188963;23;20020;-88
2023/04/26 06:30:42;;;;;;;0.50;0.50;;;;;;;10.39;95.58;97744.41;6212923;23;20032;-87
2023/04/26 06:33:10;;;;;;;0.47;0.47;;;;;;;10.15;95.38;97717.19;6199028;23;20020;-90
2023/04/26 06:35:42;;;;;;;0.50;0.50;;;;;;;10.34;95.19;97746.31;6223944;23;20016;-87
2023/04/26 06:38:11;;;;;;;0.40;0.40;;;;;;;10.31;95.23;97742.25;6225494;23;20050;-89
2023/04/26 06:40:39;;;;;;;0.50;0.50;;;;;;;10.36;95.28;97746.84;6212283;23;20024;-90
2023/04/26 06:43:07;;;;;;;0.50;0.50;;;;;;;10.36;95.40;97744.94;6213644;23;20056;-87
2023/04/26 06:45:51;;;;;;;0.50;0.50;;;;;;;10.39;95.31;97738.19;6215383;23;20024;-88
2023/04/26 06:48:19;;;;;;;0.50;0.50;;;;;;;10.56;95.29;97751.38;6189722;23;20025;-89
2023/04/26 06:50:47;;;;;;;0.50;0.50;;;;;;;10.62;94.54;97759.16;6212019;23;20029;-88
2023/04/26 06:53:14;;;;;;;0.50;0.50;;;;;;;10.54;93.83;97758.94;6213275;23;20020;-87
2023/04/26 06:55:44;;;;;;;0.43;0.43;;;;;;;10.64;94.19;97756.19;6215186;23;20055;-89
2023/04/26 06:58:11;;;;;;;0.50;0.50;;;;;;;10.73;93.95;97754.53;6216875;23;20028;-89
2023/04/26 07:00:39;;;;;;;0.50;0.50;;;;;;;10.82;93.73;97760.97;6215204;23;20020;-88
2023/04/26 07:03:09;;;;;;;0.50;0.50;;;;;;;10.96;93.25;97763.06;6216444;23;20024;-90
2023/04/26 07:05:38;;;;;;;0.50;0.50;;;;;;;10.89;92.62;97765.25;6216687;23;20020;-88
2023/04/26 07:08:05;;;;;;;0.50;0.50;;;;;;;10.93;92.47;97760.94;6219180;23;20325;-90
2023/04/26 07:10:32;;;;;;;0.50;0.50;;;;;;;10.95;91.97;97762.28;6216533;23;20051;-89
2023/04/26 07:13:13;;;;;;;0.47;0.47;;;;;;;11.07;92.02;97754.66;6217027;23;20024;-89
2023/04/26 07:15:41;;;;;;;0.50;0.50;;;;;;;10.99;90.86;97743.66;6214865;23;20031;-89
2023/04/26 07:18:13;;;;;;;0.50;0.50;;;;;;;11.12;90.67;97764.63;6216268;23;20107;-89
2023/04/26 07:20:40;;;;;;;0.50;0.50;;;;;;;11.18;90.29;97768.09;6215533;23;20031;-90
2023/04/26 07:23:07;;;;;;;0.50;0.50;;;;;;;11.27;89.66;97769.94;6214948;23;20025;-88
2023/04/26 07:25:37;;;;;;;0.50;0.50;;;;;;;11.24;89.54;97773.22;6215388;23;20020;-90
2023/04/26 07:28:04;;;;;;;0.40;0.40;;;;;;;11.24;89.25;97775.91;6189909;23;20024;-90
2023/04/26 07:30:32;;;;;;;0.43;0.43;;;;;;;11.07;89.28;97783.56;6214497;23;20111;-89
2023/04/26 07:32:59;;;;;;;0.50;0.50;;;;;;;11.00;90.02;97783.03;6216210;23;20067;-89
2023/04/26 07:35:29;;;;;;;0.50;0.50;;;;;;;10.98;90.55;97785.19;6217493;23;20031;-89
2023/04/26 07:37:58;;;;;;;0.50;0.50;;;;;;;10.96;90.90;97785.50;6189882;23;20028;-89
2023/04/26 07:40:28;;;;;;;0.40;0.40;;;;;;;11.01;90.74;97790.88;6192801;23;20036;-89
2023/04/26 07:42:55;;;;;;;0.50;0.50;;;;;;;11.01;90.53;97790.88;6219739;23;20104;-89
2023/04/26 07:45:22;;;;;;;0.50;0.50;;;;;;;11.08;90.28;97787.84;6216302;23;20028;-88
2023/04/26 07:47:49;;;;;;;0.50;0.50;;;;;;;11.14;89.72;97786.75;6195869;23;20020;-90
2023/04/26 07:50:16;;;;;;;0.50;0.50;;;;;;;11.13;88.96;97793.22;6227195;23;20108;-88
2023/04/26 07:52:44;;;;;;;0.50;0.50;;;;;;;11.14;89.12;97784.06;6190673;23;20028;-89
2023/04/26 07:55:11;;;;;;;0.50;0.50;;;;;;;11.22;89.02;97794.28;6216543;23;20459;-89
2023/04/26 07:57:38;;;;;;;0.50;0.50;;;;;;;11.18;88.72;97789.69;6190306;23;20404;-89
2023/04/26 08:00:09;;;;;;;0.50;0.50;;;;;;;11.31;89.21;97801.78;6189563;23;20024;-88
2023/04/26 08:02:42;;;;;;;0.50;0.50;;;;;;;11.36;88.36;97794.47;6189273;23;20114;-89
2023/04/26 08:05:12;;;;;;;0.50;0.50;;;;;;;11.42;87.35;97792.53;6219970;23;20021;-89
2023/04/26 08:07:41;;;;;;;0.50;0.50;;;;;;;11.29;86.75;97791.25;6188891;23;20196;-89
2023/04/26 08:10:13;;;;;;;0.50;0.50;;;;;;;11.36;86.61;97796.34;6230186;23;20024;-88
2023/04/26 08:12:40;;;;;;;0.50;0.50;;;;;;;11.37;86.53;97795.25;6139673;23;20107;-88
2023/04/26 08:15:08;;;;;;;0.50;0.50;;;;;;;11.59;86.40;97803.78;6190204;23;20021;-88
2023/04/26 08:17:36;;;;;;;0.50;0.50;;;;;;;11.51;85.32;97796.25;6188075;23;20444;-87
2023/04/26 08:20:08;;;;;;;0.50;0.50;;;;;;;11.57;85.14;97811.38;6188716;23;20116;-89
2023/04/26 08:22:35;;;;;;;0.50;0.50;;;;;;;11.62;85.21;97814.03;6188567;23;20021;-89
2023/04/26 08:25:06;;;;;;;0.50;0.50;;;;;;;11.85;85.57;97811.69;6187432;23;20531;-90
2023/04/26 08:27:35;;;;;;;0.50;0.50;;;;;;;11.92;85.05;97818.47;6159668;23;20025;-90
2023/04/26 08:30:03;;;;;;;0.50;0.50;;;;;;;11.97;85.46;97804.06;6110748;23;20025;-89
2023/04/26 08:32:34;;;;;;;0.50;0.50;;;;;;;12.14;84.44;97818.00;6158442;23;20514;-90
2023/04/26 08:35:01;;;;;;;0.50;0.50;;;;;;;12.01;83.77;97823.25;6161243;23;20060;-90
2023/04/26 08:37:29;;;;;;;0.50;0.50;;;;;;;11.93;84.25;97813.84;6186423;23;20029;-88
2023/04/26 08:39:57;;;;;;;0.50;0.50;;;;;;;11.93;84.61;97819.25;6159706;23;20025;-90
2023/04/26 08:42:27;;;;;;;0.50;0.50;;;;;;;11.84;84.79;97812.81;6137325;23;20025;-90
2023/04/26 08:44:59;;;;;;;0.43;0.43;;;;;;;11.70;85.90;97821.56;6161703;23;20027;-90
2023/04/26 08:47:40;;;;;;;0.50;0.50;;;;;;;11.68;86.41;97823.72;6117388;23;20021;-89
2023/04/26 08:50:13;;;;;;;0.50;0.50;;;;;;;11.63;87.24;97822.94;6160340;23;20060;-89
2023/04/26 08:52:42;;;;;;;0.50;0.50;;;;;;;11.53;87.99;97818.41;6163094;23;20021;-87
2023/04/26 08:55:10;;;;;;;0.50;0.50;;;;;;;11.49;88.14;97836.25;6145120;23;20020;-90
2023/04/26 08:57:39;;;;;;;0.50;0.50;;;;;;;11.39;88.14;97830.91;6135633;23;20025;-91
2023/04/26 09:00:12;;;;;;;0.50;0.50;;;;;;;11.48;88.98;97830.06;6186005;23;20464;-88
2023/04/26 09:02:44;;;;;;;0.50;0.50;;;;;;;11.68;88.96;97826.41;6188441;23;20021;-92
2023/04/26 09:05:13;;;;;;;0.50;0.50;;;;;;;11.85;88.25;97827.91;6135640;23;20028;-90
2023/04/26 09:07:44;;;;;;;0.50;0.50;;;;;;;12.04;87.79;97831.59;6161126;23;20158;-88
2023/04/26 09:10:12;;;;;;;0.50;0.50;;;;;;;12.17;87.64;97835.56;6192044;23;20083;-88
2023/04/26 09:12:42;;;;;;;0.50;0.50;;;;;;;12.25;87.37;97836.84;6141491;23;20021;-88
2023/04/26 09:15:10;;;;;;;0.40;0.40;;;;;;;11.97;86.85;97844.63;6141672;23;20021;-90
2023/04/26 09:17:40;;;;;;;0.40;0.40;;;;;;;11.77;87.58;97839.34;6177975;23;20025;-89
2023/04/26 09:20:30;;;;;;;0.50;0.50;;;;;;;11.67;88.74;97848.31;6181422;23;20025;-89
2023/04/26 09:23:08;;;;;;;0.50;0.50;;;;;;;11.74;88.92;97846.09;6151855;23;20083;-89
2023/04/26 09:25:37;;;;;;;0.50;0.50;;;;;;;11.66;88.84;97844.81;6153741;23;20028;-90
2023/04/26 09:28:19;;;;;;;0.50;0.50;;;;;;;11.59;89.81;97851.59;6185096;23;20097;-87
2023/04/26 09:30:47;;;;;;;0.45;0.45;;;;;;;11.48;89.22;97850.88;6155980;23;20028;-90
2023/04/26 09:33:16;;;;;;;0.50;0.50;;;;;;;11.42;89.75;97860.91;6154726;23;20143;-89
2023/04/26 09:35:44;;;;;;;0.50;0.50;;;;;;;11.38;90.82;97862.53;6180328;23;20077;-89
2023/04/26 09:38:43;;;;;;;0.50;0.50;;;;;;;11.38;91.66;97873.31;6139502;23;20021;-90
2023/04/26 09:41:11;;;;;;;0.50;0.50;;;;;;;11.17;91.40;97845.59;6162051;23;20059;-87
2023/04/26 09:43:38;;;;;;;0.50;0.50;;;;;;;11.12;92.25;97866.44;6132233;23;20021;-89
2023/04/26 09:46:05;;;;;;;0.50;0.50;;;;;;;11.08;92.60;97868.84;6184523;23;20029;-89
2023/04/26 09:49:02;;;;;;;0.50;0.50;;;;;;;11.05;92.38;97862.13;6188538;23;20577;-90
2023/04/26 09:51:29;;;;;;;0.50;0.50;;;;;;;11.03;92.53;97882.38;6162955;23;20049;-90
2023/04/26 09:54:00;;;;;;;0.50;0.50;;;;;;;11.16;92.49;97880.97;6139461;23;20080;-88
2023/04/26 09:56:27;;;;;;;0.50;0.50;;;;;;;11.20;92.45;97873.94;6158150;23;20040;-87
2023/04/26 09:58:58;;;;;;;0.50;0.50;;;;;;;11.24;92.19;97878.53;6134506;23;20044;-87
2023/04/26 10:01:30;;;;;;;0.50;0.50;;;;;;;11.26;91.42;97865.53;6157668;23;20031;-87
2023/04/26 10:04:00;;;;;;;0.50;0.50;;;;;;;11.24;90.21;97878.53;6137487;23;20021;-87
2023/04/26 10:06:31;;;;;;;0.43;0.43;;;;;;;11.21;88.93;97876.34;6129479;23;20045;-88
2023/04/26 10:09:00;;;;;;;0.50;0.50;;;;;;;11.21;88.65;97889.06;6130405;23;20024;-87
2023/04/26 10:11:29;;;;;;;0.50;0.50;;;;;;;11.32;89.45;97897.94;6137715;23;20030;-89
2023/04/26 10:13:56;;;;;;;0.50;0.50;;;;;;;11.50;89.14;97891.94;6101868;23;20117;-90
2023/04/26 10:16:24;;;;;;;0.50;0.50;;;;;;;11.56;88.24;97896.22;6105186;23;20369;-89
2023/04/26 10:18:52;;;;;;;0.50;0.50;;;;;;;11.70;87.69;97899.13;6103246;23;20204;-88
2023/04/26 10:21:34;;;;;;;0.50;0.50;;;;;;;11.91;86.97;97892.53;6151501;23;20021;-88
2023/04/26 10:24:01;;;;;;;0.50;0.50;;;;;;;12.12;85.44;97895.91;6106233;23;20030;-90
2023/04/26 10:26:55;;;;;;;0.60;0.60;;;;;;;12.41;83.81;97905.97;6155598;23;20137;-89
2023/04/26 10:29:24;;;;;;;0.60;0.60;;;;;;;12.57;82.78;97904.75;6156536;23;20025;-91
2023/04/26 10:32:03;;;;;;;0.57;0.57;;;;;;;12.93;81.12;97912.53;6132440;23;20085;-89
2023/04/26 10:34:35;;;;;;;0.52;0.52;;;;;;;13.18;79.93;97906.03;6155525;23;20025;-87
2023/04/26 10:37:16;;;;;;;0.50;0.50;;;;;;;13.38;78.74;97910.44;6105539;23;20462;-88
2023/04/26 10:39:44;;;;;;;0.50;0.50;;;;;;;13.32;78.22;97914.31;6151806;23;20124;-88
2023/04/26 10:42:22;;;;;;;0.50;0.50;;;;;;;13.35;77.89;97908.31;6127656;23;20033;-87
2023/04/26 10:44:57;;;;;;;0.50;0.50;;;;;;;13.34;78.38;97909.44;6164211;23;20028;-88
2023/04/26 10:47:30;;;;;;;0.50;0.50;;;;;;;13.38;78.55;97909.63;6185007;23;20021;-86
2023/04/26 10:50:02;;;;;;;0.63;0.63;;;;;;;13.97;76.83;97900.19;6132686;23;20027;-87
2023/04/26 10:52:37;;;;;;;0.60;0.60;;;;;;;14.14;73.94;97902.38;6132656;23;20107;-85
2023/04/26 10:55:05;;;;;;;0.60;0.60;;;;;;;14.29;73.66;97910.28;6111849;23;20025;-85
2023/04/26 10:57:46;;;;;;;0.60;0.60;;;;;;;14.34;73.11;97905.88;6137122;23;20025;-86
2023/04/26 11:00:27;;;;;;;0.40;0.40;;;;;;;14.23;73.42;97900.63;6133989;23;20025;-86
2023/04/26 11:03:05;;;;;;;0.40;0.40;;;;;;;13.92;74.66;97907.59;6132608;23;20491;-86
2023/04/26 11:05:41;;;;;;;0.50;0.50;;;;;;;13.63;76.17;97916.66;6184650;23;20025;-85
2023/04/26 11:08:15;;;;;;;0.40;0.40;;;;;;;13.30;76.73;97911.09;6132171;23;20020;-86
2023/04/26 11:10:49;;;;;;;0.40;0.40;;;;;;;13.10;77.37;97917.50;6141029;23;20020;-85
2023/04/26 11:13:18;;;;;;;0.50;0.50;;;;;;;13.01;77.95;97922.75;6212493;23;20510;-86
2023/04/26 11:15:46;;;;;;;0.40;0.40;;;;;;;12.90;78.32;97929.34;6215786;23;20078;-89
2023/04/26 11:18:18;;;;;;;0.43;0.43;;;;;;;12.78;79.65;97908.06;6190773;23;20035;-87
2023/04/26 11:20:46;;;;;;;0.32;0.32;;;;;;;12.90;79.57;97925.84;6188079;23;20024;-86
2023/04/26 11:23:13;;;;;;;0.40;0.40;;;;;;;12.78;80.44;97929.72;6212345;23;20079;-85
2023/04/26 11:25:40;;;;;;;0.40;0.40;;;;;;;12.67;80.75;97928.22;6190642;23;20020;-88
2023/04/26 11:28:12;;;;;;;0.40;0.40;;;;;;;12.61;80.45;97913.13;6192248;23;20031;-89
2023/04/26 11:30:39;;;;;;;1.00;1.00;;;;;;;15.36;73.46;97937.50;6214018;23;20063;-87
2023/04/26 11:33:16;;;;;;;0.90;0.90;;;;;;;18.42;66.06;97933.59;6168398;23;20078;-88
2023/04/26 11:35:46;;;;;;;0.90;0.90;;;;;;;20.69;57.45;97933.41;6214753;23;20504;-87
2023/04/26 11:38:14;;;;;;;0.50;0.50;;;;;;;21.75;50.32;97934.63;6211111;23;20127;-89
2023/04/26 11:40:41;;;;;;;0.40;0.40;;;;;;;20.05;52.71;97936.47;6210675;23;20027;-87
2023/04/26 11:43:09;;;;;;;1.00;1.00;;;;;;;19.83;52.88;97935.63;6211799;23;20028;-87
2023/04/26 11:45:37;;;;;;;0.88;0.88;;;;;;;21.36;50.38;97930.56;6211496;23;20459;-87
2023/04/26 11:48:12;;;;;;;0.40;0.40;;;;;;;20.41;50.84;97932.31;6211274;23;20070;-92
2023/04/26 11:50:42;;;;;;;0.30;0.30;;;;;;;19.36;54.47;97934.88;6212050;23;20024;-87
2023/04/26 11:53:09;;;;;;;0.30;0.30;;;;;;;17.81;54.62;97931.94;6210572;23;20024;-86
2023/04/26 11:55:40;;;;;;;0.30;0.30;;;;;;;16.59;58.28;97944.97;6210531;23;20364;-87
2023/04/26 11:58:13;;;;;;;0.30;0.30;;;;;;;16.14;59.47;97943.00;6209926;23;20020;-84
2023/04/26 12:00:55;;;;;;;0.40;0.40;;;;;;;16.34;60.06;97949.88;6211286;23;20028;-85